Time;durP1;ratioP1;P1;durP2;ratioP2;P2;SDS_P1;SDS_P2;PMS_P1;PMS_P2;Temp;Humidity;BMP_temperature;BMP_pressure;BME280_temperature;BME280_humidity;BME280_pressure;Samples;Min_cycle;Max_cycle;Signal;HPM_P1;HPM_P2
2022/05/14 00:00:43;;;;;;;21.20;5.47;;;12.00;99.90;;;;;;4978766;28;89246;-38
2022/05/14 00:03:09;;;;;;;7.97;4.72;;;12.00;99.90;;;;;;4978931;28;89945;-35
2022/05/14 00:05:35;;;;;;;8.07;4.07;;;11.90;99.90;;;;;;4978890;28;88887;-36
2022/05/14 00:08:02;;;;;;;10.82;5.57;;;11.90;99.90;;;;;;4979162;28;90130;-35
2022/05/14 00:10:30;;;;;;;14.35;5.53;;;11.90;99.90;;;;;;4977989;28;90556;-37
2022/05/14 00:13:05;;;;;;;10.82;5.18;;;11.90;99.90;;;;;;4977852;28;89882;-35
2022/05/14 00:15:39;;;;;;;6.20;4.68;;;11.80;99.90;;;;;;4979216;28;88986;-38
2022/05/14 00:18:06;;;;;;;10.73;5.43;;;11.80;99.90;;;;;;4978576;28;90306;-36
2022/05/14 00:20:33;;;;;;;8.15;5.15;;;11.80;99.90;;;;;;4978162;28;89093;-37
2022/05/14 00:22:59;;;;;;;9.35;5.00;;;11.80;99.90;;;;;;4978056;28;89919;-36
2022/05/14 00:25:25;;;;;;;10.48;4.88;;;11.80;99.90;;;;;;4978319;28;87821;-38
2022/05/14 00:27:52;;;;;;;9.63;6.13;;;11.80;99.90;;;;;;4980331;28;89933;-40
2022/05/14 00:30:23;;;;;;;15.40;5.43;;;11.80;99.90;;;;;;4982191;28;89630;-33
2022/05/14 00:32:49;;;;;;;7.03;4.15;;;11.80;99.90;;;;;;4982064;28;89400;-36
2022/05/14 00:35:15;;;;;;;7.18;4.85;;;11.80;99.90;;;;;;4981427;28;90252;-34
2022/05/14 00:37:41;;;;;;;13.88;4.93;;;11.90;99.90;;;;;;4981278;28;90533;-34
2022/05/14 00:40:12;;;;;;;10.18;4.22;;;11.90;99.90;;;;;;4982517;28;89526;-36
2022/05/14 00:45:33;;;;;;;7.70;4.55;;;11.80;99.90;;;;;;4901887;28;89922;-36
2022/05/14 00:47:59;;;;;;;9.27;4.43;;;11.90;99.90;;;;;;4902712;28;90075;-35
2022/05/14 00:50:26;;;;;;;8.93;5.68;;;11.80;99.90;;;;;;4904116;28;89679;-37
2022/05/14 00:53:00;;;;;;;12.63;5.55;;;11.80;99.90;;;;;;4903774;28;89488;-34
2022/05/14 00:55:27;;;;;;;14.60;4.57;;;11.80;99.90;;;;;;4903804;28;88217;-34
2022/05/14 00:57:53;;;;;;;10.73;4.75;;;11.80;99.90;;;;;;4903242;28;90235;-38
2022/05/14 01:00:21;;;;;;;7.70;4.25;;;11.80;99.90;;;;;;4902275;28;91174;-34
2022/05/14 01:02:47;;;;;;;9.68;5.18;;;11.80;99.90;;;;;;4902830;28;90590;-35
2022/05/14 01:05:14;;;;;;;8.60;4.45;;;11.80;99.90;;;;;;4904004;28;88508;-37
2022/05/14 01:07:41;;;;;;;11.43;4.93;;;11.80;99.90;;;;;;4903153;28;88994;-36
2022/05/14 01:10:13;;;;;;;9.48;4.82;;;11.80;99.90;;;;;;4902558;28;89756;-35
2022/05/14 01:12:46;;;;;;;10.23;4.85;;;11.80;99.90;;;;;;4902850;28;88937;-37
2022/05/14 01:15:14;;;;;;;6.50;4.07;;;11.80;99.90;;;;;;4903551;28;89228;-38
2022/05/14 01:17:40;;;;;;;10.70;5.53;;;11.80;99.90;;;;;;4903301;28;90825;-37
2022/05/14 01:20:07;;;;;;;8.55;4.75;;;11.70;99.90;;;;;;4902462;28;90561;-39
2022/05/14 01:23:01;;;;;;;12.45;4.68;;;11.70;99.90;;;;;;4902647;28;90927;-37
2022/05/14 01:28:29;;;;;;;10.90;5.93;;;11.70;99.90;;;;;;4903317;28;90286;-34
2022/05/14 01:30:56;;;;;;;9.25;4.18;;;11.80;99.90;;;;;;4903556;28;90284;-36
2022/05/14 01:33:22;;;;;;;17.23;5.22;;;11.80;99.90;;;;;;4902541;28;89939;-37
2022/05/14 01:35:49;;;;;;;8.48;4.55;;;11.70;99.90;;;;;;4884045;28;89405;-39
2022/05/14 01:38:16;;;;;;;7.53;4.75;;;11.70;99.90;;;;;;4883796;28;89905;-35
2022/05/14 01:40:42;;;;;;;10.23;5.38;;;11.70;99.90;;;;;;4883473;28;89942;-34
2022/05/14 01:43:08;;;;;;;7.93;4.95;;;11.70;99.90;;;;;;4883096;28;89810;-38
2022/05/14 01:45:34;;;;;;;7.88;4.28;;;11.70;99.90;;;;;;4884022;28;88956;-38
2022/05/14 01:48:01;;;;;;;10.02;5.35;;;11.70;99.90;;;;;;4882843;28;90095;-35
2022/05/14 01:50:26;;;;;;;10.57;5.35;;;11.70;99.90;;;;;;4883059;28;90965;-34
2022/05/14 01:52:52;;;;;;;10.18;4.75;;;11.80;99.90;;;;;;4883625;28;90376;-34
2022/05/14 01:55:18;;;;;;;12.95;4.85;;;11.80;99.90;;;;;;4881743;28;90006;-38
2022/05/14 01:57:44;;;;;;;7.57;4.82;;;11.80;99.90;;;;;;4883285;28;90834;-35
2022/05/14 02:00:12;;;;;;;11.15;5.18;;;11.70;99.90;;;;;;4881688;28;89387;-35
2022/05/14 02:02:37;;;;;;;13.45;5.63;;;11.70;99.90;;;;;;4882466;28;89520;-36
2022/05/14 02:05:04;;;;;;;12.88;5.22;;;11.70;99.90;;;;;;4883627;28;88985;-35
2022/05/14 02:07:30;;;;;;;10.02;4.32;;;11.70;99.90;;;;;;4883493;28;90387;-35
2022/05/14 02:09:55;;;;;;;13.55;3.83;;;11.80;99.90;;;;;;4883112;28;89713;-34
2022/05/14 02:12:21;;;;;;;11.65;5.68;;;11.80;99.90;;;;;;4883515;28;89501;-35
2022/05/14 02:14:47;;;;;;;6.70;4.68;;;11.80;99.90;;;;;;4882006;28;88049;-38
2022/05/14 02:17:13;;;;;;;6.38;4.70;;;11.70;99.90;;;;;;4883792;28;90296;-34
2022/05/14 02:19:38;;;;;;;9.32;5.45;;;11.70;99.90;;;;;;4882859;28;89466;-35
2022/05/14 02:22:05;;;;;;;12.52;5.13;;;11.60;99.90;;;;;;4882864;28;89889;-37
2022/05/14 02:24:36;;;;;;;11.90;5.25;;;11.60;99.90;;;;;;4883483;28;89124;-34
2022/05/14 02:27:02;;;;;;;11.80;5.43;;;11.60;99.90;;;;;;4883125;28;89239;-36
2022/05/14 02:29:50;;;;;;;12.48;5.43;;;11.50;99.90;;;;;;4882317;28;90006;-37
2022/05/14 02:32:13;;;;;;;9.88;4.78;;;11.40;99.90;;;;;;4883263;28;89812;-35
2022/05/14 02:34:39;;;;;;;14.13;4.40;;;11.40;99.90;;;;;;4883042;28;88808;-37
2022/05/14 02:37:04;;;;;;;11.10;5.53;;;11.30;99.90;;;;;;4882462;28;89017;-36
2022/05/14 02:39:30;;;;;;;18.55;6.03;;;11.30;99.90;;;;;;4881967;28;91163;-35
2022/05/14 02:41:55;;;;;;;13.52;5.95;;;11.30;99.90;;;;;;4882002;28;91076;-38
2022/05/14 02:44:21;;;;;;;10.43;5.78;;;11.20;99.90;;;;;;4883077;28;89036;-37
2022/05/14 02:46:47;;;;;;;5.95;4.82;;;11.20;99.90;;;;;;4882633;28;90371;-36
2022/05/14 02:49:12;;;;;;;8.85;5.25;;;11.20;99.90;;;;;;4882487;28;89078;-37
2022/05/14 02:51:38;;;;;;;13.20;5.45;;;11.10;99.90;;;;;;4882698;28;90190;-33
2022/05/14 02:54:03;;;;;;;16.42;5.90;;;11.10;99.90;;;;;;4882429;28;89639;-35
2022/05/14 02:56:29;;;;;;;11.70;5.90;;;11.10;99.90;;;;;;4883234;28;90472;-35
2022/05/14 02:59:07;;;;;;;13.68;6.32;;;11.10;99.90;;;;;;4882043;28;88692;-37
2022/05/14 03:01:33;;;;;;;15.80;5.72;;;11.00;99.90;;;;;;4882398;28;90527;-38
2022/05/14 03:03:59;;;;;;;11.63;6.68;;;11.00;99.90;;;;;;4881935;28;89678;-37
2022/05/14 03:06:24;;;;;;;9.90;5.85;;;10.90;99.90;;;;;;4882337;28;90118;-34
2022/05/14 03:08:51;;;;;;;9.48;6.97;;;11.00;99.90;;;;;;4882473;28;90076;-38
2022/05/14 03:11:17;;;;;;;17.23;6.78;;;10.90;99.90;;;;;;4883450;28;89107;-35
2022/05/14 03:13:43;;;;;;;16.08;6.65;;;10.80;99.90;;;;;;4881800;28;88867;-36
2022/05/14 03:16:09;;;;;;;11.98;6.80;;;10.90;99.90;;;;;;4882581;28;90152;-35
2022/05/14 03:18:34;;;;;;;7.43;5.88;;;10.80;99.90;;;;;;4882321;28;90695;-37
2022/05/14 03:21:00;;;;;;;10.80;6.50;;;10.80;99.90;;;;;;4881945;28;97546;-35
2022/05/14 03:23:26;;;;;;;17.65;7.35;;;10.80;99.90;;;;;;4883108;28;87897;-38
2022/05/14 03:25:51;;;;;;;9.63;6.18;;;10.70;99.90;;;;;;4881704;28;88935;-39
2022/05/14 03:28:17;;;;;;;14.93;6.72;;;10.70;99.90;;;;;;4880327;28;90276;-37
2022/05/14 03:30:43;;;;;;;13.43;6.63;;;10.60;99.90;;;;;;4882014;28;91986;-36
2022/05/14 03:33:08;;;;;;;16.08;7.47;;;10.60;99.90;;;;;;4882348;28;89559;-35
2022/05/14 03:35:34;;;;;;;12.18;7.28;;;10.60;99.90;;;;;;4882416;28;90788;-37
2022/05/14 03:38:00;;;;;;;13.00;6.57;;;10.60;99.90;;;;;;4881751;28;90113;-36
2022/05/14 03:40:26;;;;;;;9.13;6.13;;;10.60;99.90;;;;;;4882356;28;89813;-34
2022/05/14 03:42:51;;;;;;;14.05;7.45;;;10.50;99.90;;;;;;4881760;28;88998;-34
2022/05/14 03:45:17;;;;;;;12.73;7.30;;;10.50;99.90;;;;;;4882084;28;90548;-39
2022/05/14 03:47:42;;;;;;;16.33;8.35;;;10.50;99.90;;;;;;4881966;28;89845;-36
2022/05/14 03:50:08;;;;;;;14.90;7.40;;;10.50;99.90;;;;;;4881640;28;89841;-38
2022/05/14 03:52:34;;;;;;;24.63;7.75;;;10.50;99.90;;;;;;4882388;28;90375;-35
2022/05/14 03:54:59;;;;;;;11.07;6.32;;;10.50;99.90;;;;;;4881172;28;90770;-33
2022/05/14 03:57:25;;;;;;;19.58;7.78;;;10.50;99.90;;;;;;4882129;28;89717;-38
2022/05/14 03:59:51;;;;;;;12.50;7.20;;;10.50;99.90;;;;;;4881397;28;89455;-36
2022/05/14 04:02:17;;;;;;;17.38;7.93;;;10.40;99.90;;;;;;4882847;28;89436;-36
2022/05/14 04:04:43;;;;;;;15.80;7.80;;;10.50;99.90;;;;;;4885050;28;89311;-37
2022/05/14 04:07:10;;;;;;;14.18;8.07;;;10.50;99.90;;;;;;4884662;28;89687;-33
2022/05/14 04:09:35;;;;;;;15.45;7.22;;;10.50;99.90;;;;;;4884621;28;89718;-35
2022/05/14 04:12:01;;;;;;;15.65;8.68;;;10.50;99.90;;;;;;4885421;28;88581;-37
2022/05/14 04:14:27;;;;;;;21.63;8.85;;;10.50;99.90;;;;;;4884445;28;90346;-39
2022/05/14 04:16:53;;;;;;;16.83;6.95;;;10.50;99.90;;;;;;4884809;28;90801;-34
2022/05/14 04:19:21;;;;;;;14.75;7.53;;;10.60;99.90;;;;;;4884775;28;90278;-37
2022/05/14 04:21:48;;;;;;;18.95;8.85;;;10.60;99.90;;;;;;4884184;28;88120;-34
2022/05/14 04:24:14;;;;;;;17.58;8.10;;;10.70;99.90;;;;;;4884836;28;90262;-34
2022/05/14 04:26:40;;;;;;;14.13;7.97;;;10.70;99.90;;;;;;4867891;28;89920;-35
2022/05/14 04:29:06;;;;;;;13.90;8.30;;;10.70;99.90;;;;;;4883474;28;89423;-37
2022/05/14 04:31:32;;;;;;;20.20;8.02;;;10.80;99.90;;;;;;4885084;28;89292;-35
2022/05/14 04:33:57;;;;;;;19.38;8.52;;;10.90;99.90;;;;;;4884130;28;90017;-36
2022/05/14 04:36:23;;;;;;;17.25;7.80;;;11.10;99.90;;;;;;4884169;28;90160;-37
2022/05/14 04:38:49;;;;;;;18.35;8.10;;;11.20;99.90;;;;;;4884731;28;90049;-35
2022/05/14 04:41:15;;;;;;;14.93;7.55;;;11.30;99.90;;;;;;4884441;28;89554;-39
2022/05/14 04:43:41;;;;;;;14.50;8.10;;;11.30;99.90;;;;;;4883489;28;89788;-34
2022/05/14 04:46:07;;;;;;;14.93;8.73;;;11.30;99.90;;;;;;4884239;28;90272;-33
2022/05/14 04:48:35;;;;;;;17.38;8.05;;;11.30;99.90;;;;;;4884891;28;90859;-35
2022/05/14 04:51:01;;;;;;;;;;;11.40;99.90;;;;;;4885508;28;90010;-36
2022/05/14 04:53:26;;;;;;;17.10;8.02;;;11.50;99.90;;;;;;4885602;28;90852;-36
2022/05/14 04:55:52;;;;;;;14.43;7.78;;;11.60;99.90;;;;;;4884430;28;89529;-35
2022/05/14 04:58:18;;;;;;;18.63;9.50;;;11.60;99.90;;;;;;4884154;28;89641;-35
2022/05/14 05:00:44;;;;;;;16.80;8.32;;;11.80;99.90;;;;;;4883854;28;89639;-33
2022/05/14 05:03:19;;;;;;;11.73;7.97;;;11.80;99.90;;;;;;4884242;28;90374;-35
2022/05/14 05:05:48;;;;;;;27.15;8.82;;;11.90;99.90;;;;;;4883377;28;89948;-38
2022/05/14 05:08:14;;;;;;;17.38;9.27;;;12.00;99.90;;;;;;4882404;28;90717;-34
2022/05/14 05:10:40;;;;;;;13.43;8.05;;;12.10;99.90;;;;;;4884235;28;89188;-37
2022/05/14 05:13:11;;;;;;;23.17;9.80;;;12.30;99.90;;;;;;4881764;28;91138;-35
2022/05/14 05:15:38;;;;;;;14.45;9.13;;;12.40;99.90;;;;;;4884238;28;89592;-34
2022/05/14 05:18:04;;;;;;;19.20;8.82;;;12.50;99.90;;;;;;4883823;28;89777;-34
2022/05/14 05:20:30;;;;;;;16.75;9.18;;;12.60;99.90;;;;;;4884536;28;90441;-35
2022/05/14 05:22:55;;;;;;;16.73;9.88;;;12.70;99.90;;;;;;4883361;28;90274;-36
2022/05/14 05:25:21;;;;;;;20.65;9.02;;;12.80;99.90;;;;;;4884037;28;89083;-35
2022/05/14 05:27:47;;;;;;;25.23;9.50;;;12.70;99.90;;;;;;4883958;28;89515;-37
2022/05/14 05:30:12;;;;;;;16.65;10.77;;;12.90;99.90;;;;;;4883542;28;90315;-35
2022/05/14 05:32:38;;;;;;;24.27;9.45;;;12.90;99.90;;;;;;4882922;28;89975;-39
2022/05/14 05:35:05;;;;;;;13.75;9.05;;;13.00;99.90;;;;;;4883429;28;89460;-37
2022/05/14 05:37:31;;;;;;;14.55;9.30;;;13.30;99.90;;;;;;4883364;28;88606;-36
2022/05/14 05:39:56;;;;;;;19.08;9.18;;;13.40;99.90;;;;;;4902212;28;89195;-34
2022/05/14 05:42:22;;;;;;;16.65;9.30;;;13.40;99.90;;;;;;4902109;28;90133;-35
2022/05/14 05:44:48;;;;;;;19.75;9.48;;;13.60;99.90;;;;;;4902375;28;89906;-37
2022/05/14 05:47:14;;;;;;;22.10;9.02;;;13.70;99.90;;;;;;4902777;28;89929;-35
2022/05/14 05:49:40;;;;;;;18.55;9.30;;;13.80;99.90;;;;;;4902840;28;90406;-38
2022/05/14 05:52:06;;;;;;;21.05;8.50;;;13.90;99.90;;;;;;4902924;28;90157;-36
2022/05/14 05:57:17;;;;;;;26.67;9.68;;;14.30;99.90;;;;;;4902909;28;89533;-40
2022/05/14 05:59:42;;;;;;;22.38;9.10;;;14.70;99.90;;;;;;4902650;28;89154;-36
2022/05/14 06:02:08;;;;;;;18.60;9.48;;;14.70;99.90;;;;;;4902456;28;90311;-36
2022/05/14 06:04:35;;;;;;;17.48;9.48;;;14.70;99.90;;;;;;4902375;28;89705;-35
2022/05/14 06:07:01;;;;;;;17.85;9.05;;;14.90;99.90;;;;;;4901710;28;89482;-34
2022/05/14 06:09:29;;;;;;;17.08;8.38;;;15.20;99.90;;;;;;4902794;28;88856;-34
2022/05/14 06:11:55;;;;;;;;;;;15.40;99.90;;;;;;4885670;28;90338;-37
2022/05/14 06:14:21;;;;;;;21.70;9.10;;;15.80;99.90;;;;;;4903957;28;89565;-35
2022/05/14 06:16:47;;;;;;;16.00;8.70;;;15.90;99.90;;;;;;4901752;28;89328;-37
2022/05/14 06:19:13;;;;;;;20.20;8.95;;;16.00;99.90;;;;;;4902283;28;89730;-34
2022/05/14 06:21:40;;;;;;;14.82;8.95;;;16.30;99.90;;;;;;4901701;28;89095;-35
2022/05/14 06:24:07;;;;;;;17.52;9.00;;;16.30;99.90;;;;;;4901468;28;88570;-37
2022/05/14 06:26:32;;;;;;;18.40;7.57;;;16.00;99.90;;;;;;4901774;28;89681;-37
2022/05/14 06:28:59;;;;;;;16.80;9.68;;;16.10;99.90;;;;;;4901447;28;88454;-38
2022/05/14 06:31:25;;;;;;;16.80;7.75;;;16.40;99.90;;;;;;4901908;28;90102;-37
2022/05/14 06:33:50;;;;;;;17.88;7.45;;;16.60;99.90;;;;;;4901640;28;90655;-34
2022/05/14 06:36:16;;;;;;;12.68;7.65;;;17.00;99.90;;;;;;4902000;28;89063;-35
2022/05/14 06:38:42;;;;;;;13.05;7.45;;;16.80;99.90;;;;;;4902263;28;90049;-36
2022/05/14 06:41:11;;;;;;;17.77;8.27;;;16.70;99.90;;;;;;4901784;28;90533;-35
2022/05/14 06:43:37;;;;;;;19.40;7.43;;;17.00;99.90;;;;;;4900459;28;90064;-37
2022/05/14 06:46:03;;;;;;;16.25;7.93;;;17.20;99.90;;;;;;4901895;28;91193;-36
2022/05/14 06:48:29;;;;;;;17.02;8.45;;;17.40;99.90;;;;;;4902099;28;89143;-34
2022/05/14 06:50:58;;;;;;;16.38;7.28;;;17.80;99.90;;;;;;4901225;28;90394;-38
2022/05/14 06:53:24;;;;;;;20.02;6.05;;;18.10;99.90;;;;;;4901732;28;88302;-39
2022/05/14 06:55:53;;;;;;;19.38;6.75;;;17.50;99.90;;;;;;4902007;28;89526;-34
2022/05/14 06:58:24;;;;;;;23.15;7.40;;;18.00;99.90;;;;;;4901801;28;89684;-36
2022/05/14 07:00:50;;;;;;;16.90;6.88;;;18.40;99.90;;;;;;4901837;28;89250;-34
2022/05/14 07:08:45;;;;;;;13.98;6.18;;;18.40;99.90;;;;;;4901282;28;89930;-36
2022/05/14 07:11:11;;;;;;;16.33;6.97;;;18.20;99.90;;;;;;4901264;28;90421;-36
2022/05/14 07:13:38;;;;;;;18.45;6.25;;;17.80;99.90;;;;;;4901196;28;89632;-36
2022/05/14 07:16:04;;;;;;;12.15;6.00;;;18.00;99.90;;;;;;4901299;28;89934;-35
2022/05/14 07:18:31;;;;;;;15.05;6.05;;;18.30;99.90;;;;;;4901199;28;89391;-36
2022/05/14 07:20:58;;;;;;;18.88;6.80;;;18.60;99.90;;;;;;4901631;28;89466;-35
2022/05/14 07:23:23;;;;;;;14.63;6.80;;;18.70;99.90;;;;;;4901077;28;89986;-36
2022/05/14 07:25:49;;;;;;;21.80;6.53;;;19.00;99.90;;;;;;4900923;28;90136;-38
2022/05/14 07:28:15;;;;;;;22.45;6.65;;;19.40;99.90;;;;;;4901604;28;89579;-34
2022/05/14 07:30:41;;;;;;;14.43;5.90;;;19.10;99.90;;;;;;4901021;28;89857;-34
2022/05/14 07:33:06;;;;;;;18.52;5.70;;;19.60;99.90;;;;;;4900952;28;91253;-37
2022/05/14 07:35:33;;;;;;;21.83;7.38;;;19.60;99.90;;;;;;4882814;28;90459;-36
2022/05/14 07:38:03;;;;;;;18.23;7.35;;;19.30;99.90;;;;;;4901124;28;88918;-36
2022/05/14 07:40:33;;;;;;;13.77;5.47;;;19.40;99.90;;;;;;4901177;28;90467;-35
2022/05/14 07:43:06;;;;;;;9.73;5.90;;;19.60;99.90;;;;;;4900915;28;90479;-34
2022/05/14 07:45:43;;;;;;;11.77;5.35;;;19.60;99.90;;;;;;4901172;28;89699;-35
2022/05/14 07:48:16;;;;;;;14.25;5.28;;;19.90;99.90;;;;;;4900734;28;87639;-36
2022/05/14 07:50:41;;;;;;;16.13;6.13;;;19.40;99.90;;;;;;4901557;28;90067;-35
2022/05/14 07:53:07;;;;;;;16.42;5.80;;;19.20;99.90;;;;;;4900599;28;89785;-37
2022/05/14 07:55:33;;;;;;;11.52;5.97;;;19.80;99.90;;;;;;4901109;28;89380;-38
2022/05/14 07:57:59;;;;;;;10.48;4.95;;;19.40;97.50;;;;;;4900749;28;89307;-34
2022/05/14 08:00:25;;;;;;;12.05;5.15;;;19.90;99.90;;;;;;4900428;28;90507;-39
2022/05/14 08:02:51;;;;;;;12.25;5.45;;;19.70;97.70;;;;;;4900783;28;89559;-34
2022/05/14 08:05:20;;;;;;;13.80;6.30;;;19.60;99.90;;;;;;4900441;28;89647;-37
2022/05/14 08:07:46;;;;;;;18.15;6.15;;;20.00;92.20;;;;;;4900482;28;90134;-35
2022/05/14 08:10:13;;;;;;;17.10;5.72;;;19.80;98.60;;;;;;4901068;28;90397;-36
2022/05/14 08:12:42;;;;;;;17.00;6.00;;;20.20;99.90;;;;;;4900799;28;89485;-37
2022/05/14 08:15:12;;;;;;;13.77;5.28;;;20.40;96.00;;;;;;4901041;28;89632;-37
2022/05/14 08:17:37;;;;;;;10.38;5.43;;;20.30;96.40;;;;;;4900616;28;88744;-37
2022/05/14 08:20:04;;;;;;;9.95;5.30;;;20.40;98.60;;;;;;4900123;28;89417;-39
2022/05/14 08:25:14;;;;;;;23.30;6.18;;;19.50;95.40;;;;;;4900692;28;89519;-36
2022/05/14 08:27:46;;;;;;;13.15;5.30;;;19.80;98.50;;;;;;4900851;28;88914;-38
2022/05/14 08:30:17;;;;;;;10.98;4.88;;;20.30;99.90;;;;;;4900334;28;90181;-36
2022/05/14 08:32:44;;;;;;;20.00;5.80;;;20.20;96.90;;;;;;4899674;28;89873;-36
2022/05/14 08:35:10;;;;;;;16.27;5.80;;;19.90;81.70;;;;;;4900630;28;89842;-37
2022/05/14 08:37:36;;;;;;;12.52;5.10;;;20.10;94.50;;;;;;4900899;28;89366;-35
2022/05/14 08:40:26;;;;;;;17.63;4.40;;;20.00;88.30;;;;;;4899993;28;89907;-37
2022/05/14 08:42:56;;;;;;;13.85;5.47;;;19.90;95.40;;;;;;4899852;28;90094;-35
2022/05/14 08:45:25;;;;;;;25.55;7.78;;;19.70;97.80;;;;;;4899944;28;89656;-35
2022/05/14 08:48:00;;;;;;;13.40;5.68;;;19.70;99.90;;;;;;4900631;28;89222;-36
2022/05/14 08:50:30;;;;;;;13.48;6.85;;;19.80;99.90;;;;;;4902087;28;90547;-39
2022/05/14 08:53:00;;;;;;;11.63;6.45;;;19.30;94.10;;;;;;4901546;28;90502;-37
2022/05/14 08:55:33;;;;;;;20.63;6.68;;;19.10;99.90;;;;;;4902162;28;89700;-35
2022/05/14 08:58:13;;;;;;;10.35;5.07;;;19.60;99.90;;;;;;4903427;28;88436;-37
2022/05/14 09:00:39;;;;;;;15.13;6.25;;;19.70;93.70;;;;;;4903434;28;89047;-35
2022/05/14 09:03:04;;;;;;;19.17;5.00;;;19.30;97.80;;;;;;4902641;28;89924;-35
2022/05/14 09:05:34;;;;;;;14.65;5.25;;;19.70;99.90;;;;;;4903778;28;90007;-37
2022/05/14 09:08:01;;;;;;;12.75;5.25;;;19.50;92.90;;;;;;4903718;28;89334;-36
2022/05/14 09:10:30;;;;;;;12.47;4.03;;;19.10;98.50;;;;;;4903548;28;89870;-36
2022/05/14 09:13:12;;;;;;;12.43;5.03;;;19.60;92.70;;;;;;4902069;28;90860;-37
2022/05/14 09:15:46;;;;;;;11.77;4.75;;;20.20;90.90;;;;;;4902794;28;90464;-38
2022/05/14 09:18:18;;;;;;;10.13;5.10;;;20.70;78.20;;;;;;4902710;28;87951;-36
2022/05/14 09:20:47;;;;;;;10.48;4.57;;;20.20;80.60;;;;;;4902971;28;90314;-37
2022/05/14 09:23:25;;;;;;;13.15;4.72;;;20.30;83.10;;;;;;4902897;28;89647;-36
2022/05/14 09:25:51;;;;;;;13.73;5.88;;;21.20;83.80;;;;;;4902809;28;89714;-38
2022/05/14 09:28:41;;;;;;;11.57;5.15;;;20.90;74.70;;;;;;4903364;28;87697;-36
2022/05/14 09:31:07;;;;;;;11.00;4.47;;;20.70;86.20;;;;;;4903260;28;90609;-34
2022/05/14 09:33:43;;;;;;;12.30;5.18;;;19.90;81.70;;;;;;4903054;28;89731;-36
2022/05/14 09:36:22;;;;;;;19.08;6.45;;;19.90;75.20;;;;;;4902690;28;89665;-37
2022/05/14 09:39:04;;;;;;;17.77;5.93;;;19.70;90.70;;;;;;4902197;28;89055;-38
2022/05/14 09:41:39;;;;;;;12.25;5.18;;;19.40;91.90;;;;;;4903065;28;90889;-37
2022/05/14 09:44:06;;;;;;;7.57;5.35;;;19.30;96.90;;;;;;4901660;28;90474;-36
2022/05/14 09:46:34;;;;;;;14.75;6.05;;;19.40;98.00;;;;;;4902321;28;89481;-37
2022/05/14 09:49:06;;;;;;;8.13;4.97;;;19.70;99.20;;;;;;4902920;28;88348;-37
2022/05/14 09:51:36;;;;;;;13.88;5.97;;;19.60;97.40;;;;;;4901810;28;90415;-38
2022/05/14 09:54:21;;;;;;;14.93;5.18;;;19.40;96.40;;;;;;4898919;28;89562;-37
2022/05/14 09:56:55;;;;;;;12.60;5.78;;;20.30;97.30;;;;;;4900413;28;91093;-34
2022/05/14 09:59:55;;;;;;;13.15;5.80;;;20.40;86.40;;;;;;4900347;28;89840;-36
2022/05/14 10:02:45;;;;;;;15.82;5.70;;;21.00;90.60;;;;;;4900597;28;90117;-36
2022/05/14 10:05:27;;;;;;;13.60;5.28;;;21.10;72.80;;;;;;4900072;28;90618;-39
2022/05/14 10:08:14;;;;;;;14.60;5.57;;;21.00;76.80;;;;;;4899876;28;90897;-36
2022/05/14 10:11:09;;;;;;;14.38;5.35;;;21.10;86.30;;;;;;4900719;28;87973;-37
2022/05/14 10:14:14;;;;;;;16.50;6.03;;;20.80;79.40;;;;;;4900237;28;90118;-36
2022/05/14 10:17:06;;;;;;;16.23;5.25;;;20.30;90.50;;;;;;4866948;28;89737;-36
2022/05/14 10:20:09;;;;;;;17.70;6.82;;;19.80;90.90;;;;;;4886824;28;89409;-37
2022/05/14 10:29:14;;;;;;;10.87;6.13;;;19.40;98.90;;;;;;4899457;28;89772;-35
2022/05/14 10:31:51;;;;;;;24.23;6.90;;;19.00;99.90;;;;;;4899747;28;89735;-34
2022/05/14 10:34:25;;;;;;;12.27;5.97;;;19.00;99.90;;;;;;4899651;28;89590;-36
2022/05/14 10:37:13;;;;;;;12.75;5.47;;;18.90;99.90;;;;;;4899556;28;91079;-38
2022/05/14 10:39:58;;;;;;;;;;;18.90;97.50;;;;;;4882573;28;89589;-37
2022/05/14 10:42:56;;;;;;;15.70;5.72;;;19.10;99.90;;;;;;4900467;28;90533;-37
2022/05/14 10:45:26;;;;;;;16.38;6.32;;;19.70;99.90;;;;;;4882611;28;89415;-36
2022/05/14 10:48:13;;;;;;;16.67;6.47;;;20.20;97.10;;;;;;4882688;28;88993;-36
2022/05/14 10:50:38;;;;;;;20.00;7.30;;;20.50;93.90;;;;;;4898900;28;90193;-36
2022/05/14 10:53:06;;;;;;;12.50;5.15;;;20.20;94.40;;;;;;4899179;28;89338;-37
2022/05/14 10:55:48;;;;;;;13.38;5.07;;;20.10;88.30;;;;;;4899912;28;89077;-34
2022/05/14 10:58:35;;;;;;;8.43;4.40;;;20.20;88.30;;;;;;4899358;28;89323;-36
2022/05/14 11:01:02;;;;;;;11.07;5.68;;;19.90;83.00;;;;;;4898997;28;90885;-40
2022/05/14 11:03:31;;;;;;;20.50;6.07;;;20.10;89.60;;;;;;4899110;28;90366;-38
2022/05/14 11:06:03;;;;;;;10.82;5.25;;;19.90;82.80;;;;;;4898648;28;88534;-36
2022/05/14 11:08:42;;;;;;;8.73;4.80;;;19.80;86.20;;;;;;4899162;28;90489;-38
2022/05/14 11:11:20;;;;;;;10.55;5.65;;;20.00;87.30;;;;;;4898869;28;89564;-38
2022/05/14 11:14:02;;;;;;;11.73;5.03;;;19.90;85.50;;;;;;4898526;28;90157;-34
2022/05/14 11:16:47;;;;;;;12.32;4.38;;;20.20;88.40;;;;;;4898876;28;89115;-36
2022/05/14 11:19:32;;;;;;;9.65;6.03;;;19.80;72.90;;;;;;4899771;28;89579;-35
2022/05/14 11:21:58;;;;;;;7.40;4.22;;;20.10;80.80;;;;;;4898945;28;89482;-36
2022/05/14 11:24:40;;;;;;;23.35;5.90;;;20.00;77.70;;;;;;4899120;28;90306;-35
2022/05/14 11:27:07;;;;;;;17.33;5.45;;;20.10;85.50;;;;;;4897895;28;90371;-34
2022/05/14 11:29:56;;;;;;;15.93;5.90;;;19.90;83.30;;;;;;4898771;28;90566;-40
2022/05/14 11:32:23;;;;;;;17.98;6.18;;;19.90;80.70;;;;;;4898943;28;89959;-36
2022/05/14 11:34:56;;;;;;;16.52;5.53;;;19.50;83.00;;;;;;4898939;28;89706;-38
2022/05/14 11:37:35;;;;;;;7.70;5.03;;;20.10;86.50;;;;;;4898132;28;88632;-36
2022/05/14 11:40:19;;;;;;;15.73;5.78;;;20.30;85.80;;;;;;4898597;28;90336;-35
2022/05/14 11:42:47;;;;;;;17.35;5.68;;;20.40;85.30;;;;;;4899154;28;89834;-39
2022/05/14 11:45:21;;;;;;;9.38;4.57;;;20.30;73.00;;;;;;4898542;28;90101;-34
2022/05/14 11:48:00;;;;;;;13.60;6.40;;;20.40;78.80;;;;;;4917712;28;89555;-38
2022/05/14 11:50:31;;;;;;;15.82;4.82;;;20.20;68.40;;;;;;4918020;28;90169;-39
2022/05/14 11:53:02;;;;;;;12.88;5.47;;;20.10;76.60;;;;;;4916831;28;90946;-36
2022/05/14 11:55:48;;;;;;;19.83;5.53;;;20.00;93.00;;;;;;4917281;28;91033;-35
2022/05/14 11:58:22;;;;;;;13.95;6.45;;;19.80;81.90;;;;;;4918063;28;89051;-37
2022/05/14 12:00:51;;;;;;;10.80;4.85;;;19.70;76.80;;;;;;4918283;28;90046;-35
2022/05/14 12:03:29;;;;;;;9.15;5.10;;;19.60;78.80;;;;;;4918245;28;90033;-35
2022/05/14 12:06:07;;;;;;;14.55;5.00;;;19.50;80.50;;;;;;4917424;28;89879;-37
2022/05/14 12:08:51;;;;;;;16.08;5.13;;;19.50;84.80;;;;;;4917504;28;89088;-38
2022/05/14 12:11:20;;;;;;;15.50;6.97;;;19.70;81.90;;;;;;4918366;28;90396;-37
2022/05/14 12:14:06;;;;;;;14.23;5.18;;;20.00;85.60;;;;;;4918006;28;90036;-37
2022/05/14 12:16:47;;;;;;;11.55;5.18;;;20.10;75.60;;;;;;4917648;28;91682;-35
2022/05/14 12:19:28;;;;;;;9.75;5.10;;;20.20;74.50;;;;;;4911466;28;89207;-38
2022/05/14 12:22:08;;;;;;;16.58;4.90;;;20.30;72.40;;;;;;4916716;28;89134;-35
2022/05/14 12:24:38;;;;;;;11.57;4.95;;;20.30;72.30;;;;;;4921046;28;88690;-37
2022/05/14 12:27:15;;;;;;;14.15;5.40;;;20.50;68.70;;;;;;4920572;28;89697;-39
2022/05/14 12:30:02;;;;;;;11.00;4.65;;;20.80;69.70;;;;;;4921582;28;90391;-35
2022/05/14 12:35:20;;;;;;;7.63;5.50;;;21.80;62.40;;;;;;4920687;28;89692;-36
2022/05/14 12:37:46;;;;;;;17.20;5.05;;;21.10;59.20;;;;;;4920652;28;89352;-35
2022/05/14 12:40:30;;;;;;;13.32;4.75;;;20.90;58.60;;;;;;4920847;28;89100;-36
2022/05/14 12:45:40;;;;;;;10.80;5.45;;;21.00;61.20;;;;;;4956990;28;89748;-36
2022/05/14 12:48:08;;;;;;;11.25;6.03;;;21.30;63.30;;;;;;4959445;28;90767;-38
2022/05/14 12:50:33;;;;;;;13.57;5.60;;;21.80;61.30;;;;;;4960400;28;90170;-36
2022/05/14 12:53:35;;;;;;;17.13;5.32;;;21.10;59.50;;;;;;4958857;28;90117;-38
2022/05/14 12:56:01;;;;;;;16.48;5.03;;;21.50;60.10;;;;;;4959473;28;89763;-39
2022/05/14 12:58:29;;;;;;;10.13;5.35;;;21.30;62.20;;;;;;4959378;28;89439;-37
2022/05/14 13:00:55;;;;;;;;;;;21.10;63.20;;;;;;4961509;28;89993;-35
2022/05/14 13:03:28;;;;;;;17.15;6.13;;;21.20;62.10;;;;;;4959682;28;90182;-35
2022/05/14 13:06:17;;;;;;;7.60;4.60;;;20.90;62.80;;;;;;4958755;28;90002;-35
2022/05/14 13:08:49;;;;;;;14.48;6.07;;;20.80;63.60;;;;;;4958921;28;89666;-37
2022/05/14 13:11:21;;;;;;;15.07;4.80;;;20.90;61.80;;;;;;4959266;28;90200;-35
2022/05/14 13:13:50;;;;;;;16.52;4.97;;;20.60;64.40;;;;;;4959659;28;90429;-36
2022/05/14 13:16:28;;;;;;;16.15;5.60;;;20.80;67.10;;;;;;4959759;28;90551;-36
2022/05/14 13:18:57;;;;;;;;;;;20.90;65.80;;;;;;4959910;28;89868;-35
2022/05/14 13:21:32;;;;;;;14.80;6.55;;;20.80;65.00;;;;;;4960705;28;88745;-35
2022/05/14 13:24:19;;;;;;;15.55;5.72;;;20.60;66.00;;;;;;4958866;28;91223;-35